Time;durP1;ratioP1;P1;durP2;ratioP2;P2;SDS_P1;SDS_P2;PMS_P1;PMS_P2;Temp;Humidity;BMP_temperature;BMP_pressure;BME280_temperature;BME280_humidity;BME280_pressure;Samples;Min_cycle;Max_cycle;Signal;HPM_P1;HPM_P2
2022/02/06 00:00:06;;;;;;;11.70;0.77;;;7.50;99.90;;;;;;5036024;28;20462;-76
2022/02/06 00:02:35;;;;;;;;;;;7.60;99.90;;;;;;5054300;28;20017;-75
2022/02/06 00:05:01;;;;;;;9.32;0.32;;;7.60;99.90;;;;;;5054019;28;19915;-76
2022/02/06 00:07:26;;;;;;;8.30;0.95;;;7.70;99.90;;;;;;5053648;28;20103;-75
2022/02/06 00:09:52;;;;;;;9.48;0.73;;;7.70;99.90;;;;;;5035752;28;20018;-75
2022/02/06 00:12:18;;;;;;;8.07;0.57;;;7.70;99.90;;;;;;5053892;28;20414;-75
2022/02/06 00:14:44;;;;;;;10.35;0.63;;;7.70;99.90;;;;;;5053322;28;20496;-75
2022/02/06 00:17:10;;;;;;;25.88;1.40;;;7.60;99.90;;;;;;5053464;28;20040;-75
2022/02/06 00:19:39;;;;;;;8.32;0.47;;;7.70;99.90;;;;;;5035552;28;20017;-76
2022/02/06 00:22:07;;;;;;;15.65;0.60;;;7.70;99.90;;;;;;5035619;28;20021;-76
2022/02/06 00:27:10;;;;;;;11.05;1.00;;;7.70;99.90;;;;;;5053719;28;20355;-75
2022/02/06 00:32:06;;;;;;;15.95;2.00;;;7.70;99.90;;;;;;5054108;28;20060;-75
2022/02/06 00:39:49;;;;;;;11.52;1.45;;;7.70;99.90;;;;;;5053880;28;20029;-75
2022/02/06 00:42:15;;;;;;;9.52;1.30;;;7.70;99.90;;;;;;5053195;28;20025;-76
2022/02/06 00:44:41;;;;;;;15.25;1.77;;;7.70;99.90;;;;;;5035204;28;20021;-75
2022/02/06 00:47:07;;;;;;;16.23;1.38;;;7.70;99.90;;;;;;5053051;28;20444;-75
2022/02/06 00:49:33;;;;;;;9.07;0.60;;;7.70;99.90;;;;;;5053640;28;20025;-76
2022/02/06 00:52:10;;;;;;;6.20;0.52;;;7.70;99.90;;;;;;5053085;28;20032;-75
2022/02/06 00:54:35;;;;;;;8.98;1.27;;;7.70;99.90;;;;;;5055848;28;20470;-75
2022/02/06 00:57:01;;;;;;;10.38;1.00;;;7.70;99.90;;;;;;5056809;28;20079;-75
2022/02/06 00:59:27;;;;;;;15.30;1.30;;;7.70;99.90;;;;;;5057360;28;20028;-75
2022/02/06 01:01:53;;;;;;;8.88;0.45;;;7.80;99.90;;;;;;5057350;28;20104;-75
2022/02/06 01:04:19;;;;;;;7.30;0.77;;;7.80;99.90;;;;;;5056981;28;20033;-75
2022/02/06 01:06:46;;;;;;;9.25;1.10;;;7.80;99.90;;;;;;5056854;28;20447;-75
2022/02/06 01:09:12;;;;;;;12.18;1.13;;;7.70;99.90;;;;;;5057022;28;20021;-75
2022/02/06 01:11:38;;;;;;;18.58;0.57;;;7.90;99.90;;;;;;5038876;28;20408;-75
2022/02/06 01:17:30;;;;;;;24.83;2.20;;;7.90;99.90;;;;;;4956633;29;20397;-75
2022/02/06 01:20:05;;;;;;;13.90;0.43;;;7.90;99.90;;;;;;4956445;29;20424;-75
2022/02/06 01:22:33;;;;;;;18.13;1.20;;;7.90;99.90;;;;;;5023061;28;20044;-75
2022/02/06 01:28:07;;;;;;;18.55;2.25;;;8.00;99.90;;;;;;5056772;28;20100;-76
2022/02/06 01:30:31;;;;;;;17.27;1.17;;;8.00;99.90;;;;;;5051243;28;20055;-76
2022/02/06 01:33:07;;;;;;;13.93;1.88;;;8.10;99.90;;;;;;5038421;28;20025;-76
2022/02/06 01:38:24;;;;;;;19.80;1.42;;;8.10;99.90;;;;;;5056351;28;20120;-76
2022/02/06 01:43:18;;;;;;;17.45;2.35;;;8.10;99.90;;;;;;5056069;28;20478;-76
2022/02/06 02:05:41;;;;;;;13.98;1.38;;;8.20;99.90;;;;;;4974099;28;20042;-74
2022/02/06 02:43:06;;;;;;;18.90;1.38;;;8.40;99.90;;;;;;5055611;28;20044;-75
2022/02/06 02:48:12;;;;;;;10.82;1.08;;;8.40;99.90;;;;;;5055853;28;20064;-75
2022/02/06 02:50:42;;;;;;;21.92;1.58;;;8.30;99.90;;;;;;5054888;28;20021;-75
2022/02/06 02:53:22;;;;;;;15.57;1.75;;;8.30;99.90;;;;;;5036910;28;20074;-75
2022/02/06 03:03:36;;;;;;;12.85;0.95;;;8.30;99.90;;;;;;5055120;28;20098;-73
2022/02/06 03:06:04;;;;;;;9.50;1.25;;;8.40;99.90;;;;;;5036687;28;20028;-72
2022/02/06 03:08:31;;;;;;;17.30;1.55;;;8.30;99.90;;;;;;5036601;28;20438;-73
2022/02/06 03:10:59;;;;;;;17.08;1.25;;;8.40;99.90;;;;;;5054476;28;20016;-73
2022/02/06 03:13:34;;;;;;;11.63;1.17;;;8.40;99.90;;;;;;5054548;28;20493;-72
2022/02/06 03:16:05;;;;;;;16.67;1.38;;;8.40;99.90;;;;;;5055358;28;20112;-74
2022/02/06 03:18:35;;;;;;;24.40;1.80;;;8.30;99.90;;;;;;5035726;28;20371;-75
2022/02/06 03:21:02;;;;;;;11.48;0.85;;;8.30;99.90;;;;;;5054302;28;20078;-74
2022/02/06 03:23:28;;;;;;;18.83;1.10;;;8.40;99.90;;;;;;5036248;28;20021;-73
2022/02/06 03:25:54;;;;;;;14.93;0.63;;;8.40;99.90;;;;;;5036723;28;20056;-73
2022/02/06 03:28:21;;;;;;;13.40;0.75;;;8.40;99.90;;;;;;5054333;28;20500;-75
2022/02/06 03:30:47;;;;;;;8.45;1.00;;;8.40;99.90;;;;;;5054269;28;20083;-74
2022/02/06 03:33:15;;;;;;;10.57;1.08;;;8.40;99.90;;;;;;5053978;28;20021;-74
2022/02/06 03:35:42;;;;;;;17.17;1.80;;;8.40;99.90;;;;;;5054023;28;20079;-75
2022/02/06 03:38:08;;;;;;;10.73;1.00;;;8.40;99.90;;;;;;5036045;28;20125;-75
2022/02/06 03:40:48;;;;;;;13.10;0.90;;;8.40;99.90;;;;;;5036033;28;20482;-75
2022/02/06 03:43:22;;;;;;;17.17;1.90;;;8.40;99.90;;;;;;5035933;28;20099;-75
2022/02/06 03:45:57;;;;;;;11.43;1.48;;;8.40;99.90;;;;;;5054197;28;20025;-75
2022/02/06 03:48:30;;;;;;;17.92;0.55;;;8.40;99.90;;;;;;5036007;28;20071;-75
2022/02/06 03:51:01;;;;;;;16.45;1.35;;;8.40;99.90;;;;;;5054208;28;20021;-75
2022/02/06 03:53:28;;;;;;;20.15;0.68;;;8.40;99.90;;;;;;5035936;28;20021;-74
2022/02/06 03:55:54;;;;;;;17.85;0.77;;;8.40;99.90;;;;;;5035802;28;20416;-75
2022/02/06 03:58:20;;;;;;;9.98;0.82;;;8.40;99.90;;;;;;5036013;28;20086;-74
2022/02/06 04:00:46;;;;;;;19.48;1.40;;;8.50;99.90;;;;;;5053682;28;20108;-74
2022/02/06 04:03:12;;;;;;;8.73;1.67;;;8.50;99.90;;;;;;5053604;28;20025;-75
2022/02/06 04:05:38;;;;;;;13.75;1.38;;;8.50;99.90;;;;;;5053723;28;20021;-75
2022/02/06 04:08:08;;;;;;;18.83;0.82;;;8.50;99.90;;;;;;5053595;28;20505;-75
2022/02/06 04:10:41;;;;;;;17.98;1.05;;;8.50;99.90;;;;;;5035644;28;20484;-75
2022/02/06 04:13:07;;;;;;;11.90;0.15;;;8.50;99.90;;;;;;5053978;28;20021;-75
2022/02/06 04:15:40;;;;;;;17.65;0.63;;;8.50;99.90;;;;;;5053245;28;20021;-75
2022/02/06 04:18:15;;;;;;;11.00;0.73;;;8.50;99.90;;;;;;5053648;28;20028;-74
2022/02/06 04:20:41;;;;;;;23.33;2.38;;;8.50;99.90;;;;;;5053594;28;20032;-75
2022/02/06 04:23:07;;;;;;;16.70;0.95;;;8.60;99.90;;;;;;5053348;28;20048;-75
2022/02/06 04:25:33;;;;;;;13.23;0.93;;;8.60;99.90;;;;;;5053143;28;20021;-75
2022/02/06 04:27:59;;;;;;;18.52;1.77;;;8.60;99.90;;;;;;5054352;28;20035;-75
2022/02/06 04:30:25;;;;;;;13.50;0.60;;;8.60;99.90;;;;;;5059867;28;20100;-75
2022/02/06 04:32:53;;;;;;;15.05;1.40;;;8.60;99.90;;;;;;5059924;28;20478;-75
2022/02/06 04:35:20;;;;;;;21.67;1.55;;;8.60;99.90;;;;;;5060521;28;20403;-75
2022/02/06 05:20:33;;;;;;;14.35;1.00;;;8.90;99.90;;;;;;5059753;28;20040;-75
2022/02/06 05:28:36;;;;;;;15.27;1.15;;;9.00;99.90;;;;;;5060219;28;20108;-76
2022/02/06 05:30:44;;;;;;;11.45;0.60;;;9.00;99.90;;;;;;5045101;28;20025;-76
2022/02/06 05:33:09;;;;;;;21.00;0.47;;;9.00;99.90;;;;;;5059426;28;20082;-75
2022/02/06 05:35:36;;;;;;;27.45;3.75;;;9.00;99.90;;;;;;5041297;28;20107;-76
2022/02/06 05:38:02;;;;;;;8.55;0.98;;;9.00;99.90;;;;;;5059309;28;20028;-75
2022/02/06 05:40:28;;;;;;;15.45;1.25;;;9.00;99.90;;;;;;5056575;28;20064;-74
2022/02/06 05:42:53;;;;;;;17.67;1.33;;;9.10;99.90;;;;;;5056045;28;20083;-75
2022/02/06 05:45:20;;;;;;;8.27;0.88;;;9.00;99.90;;;;;;5056373;28;20029;-74
2022/02/06 05:47:46;;;;;;;23.90;1.13;;;9.10;99.90;;;;;;5056385;28;20028;-74
2022/02/06 05:50:17;;;;;;;30.13;1.63;;;9.10;99.90;;;;;;5056440;28;20036;-74
2022/02/06 05:52:43;;;;;;;19.05;1.55;;;9.00;99.90;;;;;;5056234;28;20091;-74
2022/02/06 05:55:10;;;;;;;27.27;1.55;;;9.10;99.90;;;;;;5055877;28;20064;-75
2022/02/06 05:57:36;;;;;;;15.73;1.25;;;9.10;99.90;;;;;;5037906;28;20032;-75
2022/02/06 06:00:04;;;;;;;11.05;0.50;;;9.10;99.90;;;;;;5037991;28;20052;-76
2022/02/06 06:02:30;;;;;;;16.47;1.03;;;9.00;99.90;;;;;;5055874;28;20481;-75
2022/02/06 06:04:56;;;;;;;18.50;1.17;;;9.00;99.90;;;;;;5055666;28;20094;-76
2022/02/06 06:07:22;;;;;;;12.25;0.75;;;9.00;99.90;;;;;;5055630;28;20021;-75
2022/02/06 06:09:48;;;;;;;11.98;0.82;;;9.00;99.90;;;;;;5037772;28;20099;-75
2022/02/06 06:12:13;;;;;;;13.40;0.50;;;9.00;99.90;;;;;;5055954;28;20017;-75
2022/02/06 06:14:40;;;;;;;5.82;1.17;;;8.90;99.90;;;;;;5055428;28;20554;-75
2022/02/06 06:17:06;;;;;;;24.23;1.35;;;8.90;99.90;;;;;;5055799;28;20478;-75
2022/02/06 06:19:33;;;;;;;16.15;0.68;;;8.80;99.90;;;;;;5055720;28;20096;-75
2022/02/06 06:22:00;;;;;;;11.65;0.68;;;8.80;99.90;;;;;;5055533;28;20055;-75
2022/02/06 06:24:26;;;;;;;12.85;1.95;;;8.80;99.90;;;;;;5055562;28;20367;-76
2022/02/06 06:26:53;;;;;;;21.85;1.85;;;8.70;99.90;;;;;;5055437;28;20488;-75
2022/02/06 06:29:19;;;;;;;25.80;2.53;;;8.70;99.90;;;;;;5055549;28;20017;-75
2022/02/06 06:31:45;;;;;;;21.70;2.50;;;8.70;99.90;;;;;;5055277;28;20029;-75
2022/02/06 06:34:11;;;;;;;14.98;0.90;;;8.70;99.90;;;;;;5055263;28;20146;-75
2022/02/06 06:36:36;;;;;;;26.90;0.55;;;8.70;99.90;;;;;;5055643;28;20125;-75
2022/02/06 06:39:06;;;;;;;18.00;1.52;;;8.70;99.90;;;;;;5037394;28;20025;-76
2022/02/06 06:41:32;;;;;;;9.43;1.20;;;8.70;99.90;;;;;;5037215;28;20099;-75
2022/02/06 06:43:58;;;;;;;7.90;0.50;;;8.70;99.90;;;;;;5054836;28;20037;-75
2022/02/06 06:46:24;;;;;;;20.40;2.13;;;8.80;99.90;;;;;;5054988;28;20031;-75
2022/02/06 06:48:49;;;;;;;10.95;1.05;;;8.70;99.90;;;;;;5054950;28;20386;-75
2022/02/06 06:51:15;;;;;;;24.70;1.20;;;8.80;99.90;;;;;;5054993;28;20021;-75
2022/02/06 06:53:44;;;;;;;22.67;1.65;;;8.80;99.90;;;;;;5037196;28;20128;-75
2022/02/06 06:56:18;;;;;;;12.63;1.30;;;8.80;99.90;;;;;;5054785;28;20048;-75
2022/02/06 06:58:49;;;;;;;17.67;1.60;;;8.80;99.90;;;;;;5055311;28;20066;-75
2022/02/06 07:03:50;;;;;;;24.23;1.33;;;8.80;99.90;;;;;;5055009;28;20029;-75
2022/02/06 07:06:15;;;;;;;20.98;1.85;;;8.80;99.90;;;;;;5054815;28;20100;-75
2022/02/06 07:08:41;;;;;;;15.20;1.10;;;8.80;99.90;;;;;;5054443;28;20390;-75
2022/02/06 07:11:06;;;;;;;18.55;1.52;;;8.80;99.90;;;;;;5054574;28;20021;-75
2022/02/06 07:13:32;;;;;;;19.67;1.35;;;8.80;99.90;;;;;;5054516;28;20021;-74
2022/02/06 07:15:57;;;;;;;23.13;1.67;;;8.90;99.90;;;;;;5036482;28;20433;-74
2022/02/06 07:18:23;;;;;;;14.73;1.58;;;8.80;99.90;;;;;;5054622;28;20360;-74
2022/02/06 07:20:49;;;;;;;15.90;1.15;;;8.80;99.90;;;;;;5054469;28;20367;-74
2022/02/06 07:23:16;;;;;;;13.00;1.25;;;8.80;99.90;;;;;;5054467;28;20505;-74
2022/02/06 07:25:45;;;;;;;22.08;2.35;;;8.80;99.90;;;;;;5054180;28;20394;-74
2022/02/06 07:28:16;;;;;;;19.13;1.48;;;8.80;99.90;;;;;;5054326;28;20012;-74
2022/02/06 07:30:43;;;;;;;22.13;2.42;;;8.80;99.90;;;;;;5054147;28;20021;-74
2022/02/06 07:33:11;;;;;;;12.75;0.77;;;8.80;99.90;;;;;;5054245;28;20127;-74
2022/02/06 07:35:37;;;;;;;19.33;1.13;;;8.70;99.90;;;;;;5053966;28;20502;-76
2022/02/06 07:38:02;;;;;;;18.95;1.65;;;8.80;99.90;;;;;;5054217;28;20017;-74
2022/02/06 07:40:28;;;;;;;15.50;2.05;;;8.70;99.90;;;;;;5054198;28;20509;-74
2022/02/06 07:42:54;;;;;;;20.17;1.02;;;8.70;99.90;;;;;;5053736;28;20498;-75
2022/02/06 07:45:20;;;;;;;14.48;0.80;;;8.70;99.90;;;;;;5054047;28;20478;-76
2022/02/06 07:47:47;;;;;;;14.93;0.93;;;8.70;99.90;;;;;;5036469;28;20013;-74
2022/02/06 07:50:14;;;;;;;20.42;0.80;;;8.70;99.90;;;;;;5053986;28;20013;-75
2022/02/06 07:52:41;;;;;;;11.98;1.75;;;8.70;99.90;;;;;;5036072;28;20024;-74
2022/02/06 07:55:08;;;;;;;16.23;0.57;;;8.70;99.90;;;;;;5053847;28;20025;-74
2022/02/06 07:57:34;;;;;;;21.55;1.38;;;8.70;99.90;;;;;;5053692;28;20112;-74
2022/02/06 08:00:00;;;;;;;27.83;1.92;;;8.70;99.90;;;;;;5054162;28;20066;-75
2022/02/06 08:02:26;;;;;;;11.45;1.17;;;8.70;99.90;;;;;;5053480;28;20397;-75
2022/02/06 08:04:52;;;;;;;9.38;1.08;;;8.70;99.90;;;;;;5053069;28;20083;-73
2022/02/06 08:07:18;;;;;;;17.35;1.10;;;8.70;99.90;;;;;;5053716;28;20098;-74
2022/02/06 08:10:05;;;;;;;22.40;3.17;;;8.70;99.90;;;;;;5053891;28;20024;-75
2022/02/06 08:12:33;;;;;;;25.45;2.03;;;8.70;99.90;;;;;;5053178;28;20037;-75
2022/02/06 08:15:00;;;;;;;;;;;8.70;99.90;;;;;;5054448;28;20025;-75
2022/02/06 08:17:31;;;;;;;19.88;2.42;;;8.70;99.90;;;;;;5035594;28;19919;-75
2022/02/06 08:19:59;;;;;;;15.70;2.63;;;8.70;99.90;;;;;;5053627;28;20036;-74
2022/02/06 08:22:25;;;;;;;10.38;0.28;;;8.60;99.90;;;;;;5035755;28;20017;-74
2022/02/06 08:24:52;;;;;;;14.73;1.05;;;8.60;99.90;;;;;;5035563;28;20029;-73
2022/02/06 08:27:20;;;;;;;10.82;0.65;;;8.70;99.90;;;;;;5053719;28;20509;-74
2022/02/06 08:29:47;;;;;;;6.38;0.80;;;8.70;99.90;;;;;;5035506;28;20108;-74
2022/02/06 08:32:14;;;;;;;9.77;1.38;;;8.70;99.90;;;;;;5053739;28;20024;-73
2022/02/06 08:34:40;;;;;;;19.45;1.83;;;8.70;99.90;;;;;;5053296;28;20028;-73
2022/02/06 08:37:07;;;;;;;16.83;0.57;;;8.70;99.90;;;;;;5053129;28;20039;-74
2022/02/06 08:39:34;;;;;;;11.95;0.57;;;8.60;99.90;;;;;;5053228;28;20100;-73
2022/02/06 08:42:00;;;;;;;10.90;0.63;;;8.60;99.90;;;;;;5053300;28;20031;-75
2022/02/06 08:44:26;;;;;;;12.75;0.60;;;8.60;99.90;;;;;;5052989;28;20025;-75
2022/02/06 08:46:52;;;;;;;17.60;0.90;;;8.60;99.90;;;;;;5053514;28;20028;-74
2022/02/06 08:49:18;;;;;;;10.48;1.13;;;8.70;99.90;;;;;;5053263;28;20448;-74
2022/02/06 08:51:46;;;;;;;14.20;1.30;;;8.60;99.90;;;;;;5053265;28;20025;-74
2022/02/06 08:54:11;;;;;;;11.90;0.10;;;8.60;99.90;;;;;;5053020;28;20025;-74
2022/02/06 08:56:39;;;;;;;8.45;0.85;;;8.60;99.90;;;;;;5035118;28;20500;-74
2022/02/06 08:59:10;;;;;;;6.15;0.25;;;8.60;99.90;;;;;;5053282;28;20033;-74
2022/02/06 09:01:37;;;;;;;15.35;0.90;;;8.60;99.90;;;;;;5053090;28;20028;-74
2022/02/06 09:04:03;;;;;;;12.48;0.65;;;8.60;99.90;;;;;;5052829;28;20126;-74
2022/02/06 09:06:29;;;;;;;10.65;0.57;;;8.60;99.90;;;;;;5053087;28;20021;-75
2022/02/06 09:08:57;;;;;;;9.85;0.40;;;8.60;99.90;;;;;;5052978;28;20028;-74
2022/02/06 09:11:28;;;;;;;12.20;1.65;;;8.60;99.90;;;;;;5053028;28;20014;-75
2022/02/06 09:13:57;;;;;;;12.32;1.55;;;8.60;99.90;;;;;;5035066;28;20510;-74
2022/02/06 09:16:29;;;;;;;;;;;8.60;99.90;;;;;;5056245;28;20017;-74
2022/02/06 09:18:55;;;;;;;4.90;0.15;;;8.70;99.90;;;;;;5056822;28;19905;-76
2022/02/06 09:21:23;;;;;;;5.30;0.73;;;8.70;99.90;;;;;;5056745;28;20021;-77
2022/02/06 09:23:48;;;;;;;11.02;0.30;;;8.60;99.90;;;;;;5038688;28;20023;-76
2022/02/06 09:26:14;;;;;;;9.02;0.43;;;8.60;99.90;;;;;;5038909;28;20017;-76
2022/02/06 09:28:40;;;;;;;2.67;0.20;;;8.70;99.90;;;;;;5056573;28;20450;-76
2022/02/06 09:31:06;;;;;;;10.10;0.57;;;8.70;99.90;;;;;;5056802;28;20053;-76
2022/02/06 09:35:57;;;;;;;7.53;0.43;;;8.70;99.90;;;;;;5057325;28;20072;-74
2022/02/06 09:38:23;;;;;;;4.85;0.85;;;8.70;99.90;;;;;;5056682;28;20017;-73
2022/02/06 09:40:52;;;;;;;7.75;0.20;;;8.70;99.90;;;;;;5056407;28;20028;-76
2022/02/06 09:43:18;;;;;;;7.60;0.20;;;8.70;99.90;;;;;;5056243;28;20596;-73
2022/02/06 09:45:47;;;;;;;5.38;0.80;;;8.70;99.90;;;;;;5038647;28;20017;-74
2022/02/06 09:48:14;;;;;;;5.72;0.20;;;8.70;99.90;;;;;;5057063;28;20028;-73
2022/02/06 09:50:44;;;;;;;3.42;0.65;;;8.70;99.90;;;;;;5038405;28;20025;-73
2022/02/06 09:53:10;;;;;;;9.40;0.75;;;8.70;99.90;;;;;;5038240;28;20059;-73
2022/02/06 09:55:37;;;;;;;10.32;0.52;;;8.80;99.90;;;;;;5038337;28;20073;-74
2022/02/06 09:58:28;;;;;;;6.50;0.73;;;8.80;99.90;;;;;;5056212;28;20021;-74
2022/02/06 10:00:54;;;;;;;2.85;0.47;;;8.80;99.90;;;;;;5038373;28;20053;-73
2022/02/06 10:03:23;;;;;;;5.80;0.10;;;8.80;99.90;;;;;;5056184;28;20103;-76
2022/02/06 10:05:49;;;;;;;4.13;0.43;;;8.80;99.90;;;;;;5055874;28;20025;-74
2022/02/06 10:08:31;;;;;;;12.07;0.57;;;8.80;99.90;;;;;;5056000;28;20021;-73
2022/02/06 10:11:14;;;;;;;4.05;0.32;;;8.80;99.90;;;;;;5038292;28;20013;-74
2022/02/06 10:13:40;;;;;;;18.27;2.63;;;8.80;99.90;;;;;;5055689;28;20025;-73
2022/02/06 10:16:07;;;;;;;6.70;1.17;;;8.80;99.90;;;;;;5054848;28;20083;-74
2022/02/06 10:18:35;;;;;;;4.25;0.43;;;8.80;99.90;;;;;;5036532;28;20036;-73
2022/02/06 10:21:01;;;;;;;6.65;0.10;;;8.80;99.90;;;;;;5037778;28;20021;-73
2022/02/06 10:26:04;;;;;;;3.38;0.22;;;8.90;99.90;;;;;;5055101;28;20026;-73
2022/02/06 10:28:37;;;;;;;2.28;0.00;;;8.80;99.90;;;;;;5037984;28;20033;-74
2022/02/06 10:31:04;;;;;;;6.75;0.45;;;8.90;99.90;;;;;;5037620;28;20108;-73
2022/02/06 10:33:48;;;;;;;8.10;0.77;;;8.90;99.90;;;;;;5055354;28;20500;-73
2022/02/06 10:36:22;;;;;;;4.38;0.43;;;8.90;99.90;;;;;;5055365;28;20079;-73
2022/02/06 10:38:48;;;;;;;9.73;1.20;;;8.90;99.90;;;;;;5055378;28;20028;-72
2022/02/06 10:41:17;;;;;;;7.65;0.43;;;8.90;99.90;;;;;;5055253;28;20104;-73
2022/02/06 10:44:04;;;;;;;6.35;0.28;;;8.90;99.90;;;;;;5037180;28;20037;-72
2022/02/06 10:46:32;;;;;;;4.35;0.05;;;8.90;99.90;;;;;;5037396;28;20116;-74
2022/02/06 10:49:01;;;;;;;11.20;0.57;;;8.90;99.90;;;;;;5037726;28;20021;-74
2022/02/06 10:51:47;;;;;;;10.10;0.63;;;9.00;99.90;;;;;;5055117;28;20021;-74
2022/02/06 10:54:25;;;;;;;10.90;0.57;;;9.00;99.90;;;;;;5054988;28;20040;-73
2022/02/06 10:56:58;;;;;;;8.30;0.33;;;9.00;99.90;;;;;;5033263;28;20033;-74
2022/02/06 10:59:24;;;;;;;9.95;0.40;;;9.00;99.90;;;;;;5031967;28;20323;-73
2022/02/06 11:01:49;;;;;;;8.23;0.98;;;9.00;99.90;;;;;;5053495;28;20490;-72
2022/02/06 11:04:18;;;;;;;13.52;0.22;;;9.00;99.90;;;;;;5036363;28;20083;-72
2022/02/06 11:09:29;;;;;;;6.47;0.10;;;9.00;99.90;;;;;;5054969;28;20029;-73
2022/02/06 11:11:58;;;;;;;8.65;0.38;;;9.00;99.90;;;;;;5054590;28;20036;-73
2022/02/06 11:14:30;;;;;;;2.95;0.00;;;9.10;99.90;;;;;;5036640;28;20017;-74
2022/02/06 11:16:57;;;;;;;0.10;0.00;;;8.90;99.90;;;;;;5054503;28;20482;-74
2022/02/06 11:19:23;;;;;;;0.00;0.00;;;8.20;99.90;;;;;;5037287;28;20027;-73
2022/02/06 11:22:11;;;;;;;0.47;0.00;;;7.50;99.90;;;;;;5054788;28;20029;-73
2022/02/06 11:24:39;;;;;;;0.43;0.05;;;6.80;99.90;;;;;;5036561;28;20033;-73
2022/02/06 11:27:06;;;;;;;1.60;0.00;;;6.50;99.90;;;;;;5054942;28;20025;-73
2022/02/06 11:29:32;;;;;;;0.05;0.00;;;6.30;99.90;;;;;;5054324;28;20024;-73
2022/02/06 11:31:58;;;;;;;2.90;0.00;;;6.10;99.90;;;;;;5054761;28;20025;-73
2022/02/06 11:34:23;;;;;;;0.50;0.00;;;6.10;99.90;;;;;;5036152;28;20105;-73
2022/02/06 11:43:50;;;;;;;3.05;0.00;;;6.00;99.90;;;;;;5055180;28;20048;-73
2022/02/06 11:46:23;;;;;;;4.47;0.00;;;6.00;99.90;;;;;;5051489;28;20040;-74
2022/02/06 11:48:53;;;;;;;3.97;0.00;;;6.10;99.90;;;;;;5053857;28;20032;-73
2022/02/06 11:51:19;;;;;;;0.52;0.05;;;6.10;99.90;;;;;;5035936;28;20032;-73
2022/02/06 11:53:46;;;;;;;1.98;0.00;;;6.10;99.90;;;;;;5035759;28;20492;-74
2022/02/06 11:56:35;;;;;;;1.33;0.00;;;6.20;99.90;;;;;;5035932;28;20017;-73
2022/02/06 11:59:14;;;;;;;4.25;1.35;;;6.20;99.90;;;;;;5035814;28;20017;-73
2022/02/06 12:01:42;;;;;;;4.90;0.08;;;6.30;99.90;;;;;;5035858;28;20021;-74
2022/02/06 12:04:28;;;;;;;2.38;0.22;;;6.30;99.90;;;;;;5053708;28;20028;-74
2022/02/06 12:06:57;;;;;;;4.43;0.55;;;6.30;99.90;;;;;;5053719;28;20033;-74
2022/02/06 12:09:31;;;;;;;2.22;0.00;;;6.40;99.90;;;;;;5053571;28;20049;-73
2022/02/06 12:12:10;;;;;;;1.02;0.00;;;6.50;99.90;;;;;;5035830;28;20481;-74
2022/02/06 12:14:45;;;;;;;4.25;0.00;;;6.60;99.90;;;;;;5035965;28;20028;-74
2022/02/06 12:17:20;;;;;;;8.95;0.63;;;6.70;99.90;;;;;;5035533;28;20029;-74
2022/02/06 12:20:12;;;;;;;10.63;0.75;;;6.80;99.90;;;;;;5053485;28;20021;-74
2022/02/06 12:22:43;;;;;;;4.50;0.00;;;6.90;99.90;;;;;;5053152;28;20017;-74
2022/02/06 12:25:22;;;;;;;5.60;0.05;;;7.00;99.90;;;;;;5053426;28;20021;-74
2022/02/06 12:27:50;;;;;;;15.45;0.38;;;7.10;99.90;;;;;;5053612;28;20547;-75
2022/02/06 12:30:21;;;;;;;3.50;0.00;;;7.10;99.90;;;;;;5053438;28;20432;-72
2022/02/06 12:32:47;;;;;;;1.10;0.00;;;7.20;99.90;;;;;;5035483;28;20021;-72
2022/02/06 12:38:06;;;;;;;7.57;0.00;;;7.30;99.90;;;;;;5054085;28;20120;-74
2022/02/06 12:40:33;;;;;;;2.40;0.00;;;7.40;99.90;;;;;;5053242;28;20013;-74
2022/02/06 12:43:04;;;;;;;8.10;0.28;;;7.50;99.90;;;;;;5035582;28;20033;-74
2022/02/06 12:45:31;;;;;;;3.80;0.00;;;7.50;99.90;;;;;;5035385;28;20021;-74
2022/02/06 12:48:09;;;;;;;1.52;0.15;;;7.50;99.90;;;;;;5053316;28;20021;-72
2022/02/06 12:50:40;;;;;;;1.67;0.15;;;7.60;99.90;;;;;;5038187;28;20021;-72
2022/02/06 12:53:14;;;;;;;9.32;0.57;;;7.60;99.90;;;;;;5057236;28;20028;-72
2022/02/06 12:55:40;;;;;;;3.35;0.10;;;7.60;99.90;;;;;;5039062;28;20024;-73
2022/02/06 12:58:07;;;;;;;1.25;0.10;;;7.70;99.90;;;;;;5057178;28;20167;-73
2022/02/06 13:00:56;;;;;;;0.47;0.20;;;7.70;99.90;;;;;;5039245;28;20017;-72
2022/02/06 13:03:40;;;;;;;4.32;0.00;;;7.80;99.90;;;;;;5057518;28;20032;-73
2022/02/06 13:06:14;;;;;;;8.73;0.20;;;7.80;99.90;;;;;;5039004;28;20112;-72
2022/02/06 13:08:41;;;;;;;2.20;0.00;;;7.90;99.90;;;;;;5039210;28;20103;-73
2022/02/06 13:11:25;;;;;;;10.40;0.35;;;7.90;99.90;;;;;;5057011;28;20039;-72
2022/02/06 13:14:25;;;;;;;7.20;0.77;;;7.90;99.90;;;;;;5056754;28;20021;-73
2022/02/06 13:19:28;;;;;;;2.70;0.00;;;8.00;99.90;;;;;;5057000;28;20033;-71
2022/02/06 13:22:13;;;;;;;3.53;0.65;;;8.10;99.90;;;;;;5056965;28;20052;-72
2022/02/06 13:27:43;;;;;;;7.40;0.57;;;8.30;99.90;;;;;;5057521;28;20029;-72
2022/02/06 13:30:19;;;;;;;7.25;0.32;;;8.30;99.90;;;;;;5055975;28;20099;-72
2022/02/06 13:36:23;;;;;;;1.58;0.03;;;8.30;99.90;;;;;;5056372;28;20036;-73
2022/02/06 13:38:17;;;;;;;5.00;0.00;;;8.30;99.90;;;;;;5038897;28;20121;-73
2022/02/06 13:40:53;;;;;;;6.35;0.22;;;8.30;99.90;;;;;;5038683;28;20021;-72
2022/02/06 13:43:22;;;;;;;11.68;0.00;;;8.30;99.90;;;;;;5038412;28;20120;-72
2022/02/06 13:45:51;;;;;;;7.05;0.73;;;8.30;99.90;;;;;;5038612;28;20071;-72
2022/02/06 13:48:19;;;;;;;3.08;0.00;;;8.30;99.90;;;;;;5056332;28;20025;-72
2022/02/06 13:50:57;;;;;;;1.10;0.30;;;8.30;99.90;;;;;;5056144;28;20104;-72
2022/02/06 13:53:25;;;;;;;3.67;0.00;;;8.30;99.90;;;;;;5056111;28;20147;-72
2022/02/06 13:56:01;;;;;;;3.03;0.10;;;8.30;99.90;;;;;;5056251;28;20428;-73
2022/02/06 13:58:28;;;;;;;3.85;0.00;;;8.40;99.90;;;;;;5056590;28;20025;-73
2022/02/06 14:00:56;;;;;;;1.27;0.20;;;8.40;99.90;;;;;;5055303;28;20497;-73
2022/02/06 14:03:23;;;;;;;5.78;0.35;;;8.40;99.90;;;;;;5055968;28;20048;-73
2022/02/06 14:05:52;;;;;;;5.70;0.35;;;8.40;99.90;;;;;;5038035;28;20033;-73
2022/02/06 14:08:20;;;;;;;1.33;0.00;;;8.40;99.90;;;;;;5056353;28;20025;-74
2022/02/06 14:11:02;;;;;;;2.47;0.00;;;8.50;99.90;;;;;;5055790;28;20106;-73
2022/02/06 14:13:29;;;;;;;5.00;0.10;;;8.60;99.90;;;;;;5055917;28;20017;-73
2022/02/06 14:16:11;;;;;;;2.90;0.10;;;8.70;99.90;;;;;;5037757;28;20044;-74
2022/02/06 14:18:48;;;;;;;5.03;0.22;;;8.90;99.90;;;;;;5038015;28;20402;-74
2022/02/06 14:21:14;;;;;;;1.67;0.00;;;9.20;99.90;;;;;;5037797;28;20367;-73
2022/02/06 14:23:40;;;;;;;2.33;0.20;;;9.70;99.90;;;;;;5037403;28;20116;-74
2022/02/06 14:26:15;;;;;;;2.30;0.20;;;10.10;99.90;;;;;;5055596;28;20044;-74
2022/02/06 14:28:49;;;;;;;1.48;0.10;;;10.50;99.90;;;;;;5037456;28;20017;-74
2022/02/06 14:31:26;;;;;;;5.78;0.47;;;10.60;99.90;;;;;;5055388;28;20024;-74
2022/02/06 14:33:52;;;;;;;2.45;0.47;;;10.90;99.90;;;;;;5037416;28;20036;-74
2022/02/06 14:36:22;;;;;;;4.68;0.00;;;10.90;99.90;;;;;;5055790;28;20029;-74
2022/02/06 14:38:58;;;;;;;1.88;0.10;;;10.80;99.90;;;;;;5055371;28;20029;-74
2022/02/06 14:41:40;;;;;;;3.03;0.00;;;10.80;99.90;;;;;;5037339;28;20025;-74
2022/02/06 14:44:15;;;;;;;2.80;0.10;;;10.50;99.90;;;;;;5055076;28;20028;-74
2022/02/06 14:46:40;;;;;;;3.05;0.00;;;10.20;99.90;;;;;;5055116;28;20025;-74
2022/02/06 14:49:09;;;;;;;2.45;0.00;;;9.80;99.90;;;;;;5037018;28;20371;-74
2022/02/06 14:51:40;;;;;;;3.58;0.00;;;9.60;99.90;;;;;;5055570;28;20108;-75
2022/02/06 14:54:08;;;;;;;2.30;0.20;;;9.30;99.90;;;;;;5055476;28;20104;-74
2022/02/06 14:56:36;;;;;;;4.65;0.10;;;9.20;99.90;;;;;;5054905;28;20021;-75
2022/02/06 14:59:03;;;;;;;3.15;0.00;;;9.10;99.90;;;;;;5037055;28;20020;-75
2022/02/06 15:01:29;;;;;;;0.82;0.13;;;9.10;99.90;;;;;;5054545;28;20032;-75
2022/02/06 15:03:55;;;;;;;5.90;0.25;;;9.10;99.90;;;;;;5036913;28;20180;-76
2022/02/06 15:06:21;;;;;;;3.15;0.00;;;9.00;99.90;;;;;;5054901;28;20123;-75
2022/02/06 15:08:46;;;;;;;2.35;0.00;;;9.00;99.90;;;;;;5037115;28;20079;-75
2022/02/06 15:11:12;;;;;;;9.95;0.20;;;9.10;99.90;;;;;;5054498;28;20096;-75
2022/02/06 15:13:38;;;;;;;0.28;0.10;;;9.10;99.90;;;;;;5036795;28;20017;-75
2022/02/06 15:16:11;;;;;;;3.00;0.05;;;9.00;99.90;;;;;;5054800;28;20056;-74
2022/02/06 15:18:46;;;;;;;2.92;0.32;;;9.00;99.90;;;;;;5035990;28;20033;-74
2022/02/06 15:21:11;;;;;;;3.53;0.20;;;8.90;99.90;;;;;;5036739;28;20025;-74
2022/02/06 15:23:40;;;;;;;2.97;0.00;;;8.80;99.90;;;;;;5054435;28;20381;-75
2022/02/06 15:26:06;;;;;;;5.70;0.00;;;8.80;99.90;;;;;;5054418;28;20036;-75
2022/02/06 15:28:32;;;;;;;5.82;0.00;;;8.70;99.90;;;;;;5036450;28;20018;-76
2022/02/06 15:30:57;;;;;;;2.13;0.88;;;8.80;99.90;;;;;;5054357;28;20028;-75
2022/02/06 15:33:24;;;;;;;5.40;0.57;;;8.80;99.90;;;;;;5054469;28;20378;-74
2022/02/06 15:35:51;;;;;;;4.18;0.03;;;8.80;99.90;;;;;;5054508;28;20389;-74
2022/02/06 15:38:18;;;;;;;2.72;0.03;;;8.80;99.90;;;;;;5036370;28;20474;-75
2022/02/06 15:40:44;;;;;;;1.25;0.00;;;8.70;99.90;;;;;;5053929;28;20032;-74
2022/02/06 15:43:10;;;;;;;1.08;0.00;;;8.70;99.90;;;;;;5036171;28;20428;-74
2022/02/06 15:45:39;;;;;;;2.25;0.00;;;8.60;99.90;;;;;;5054044;28;20048;-74